sensor_id;sensor_type;location;lat;lon;timestamp;P1;durP1;ratioP1;P2;durP2;ratioP2
77544;SDS011;66672;50.328;7.610;2023-04-26T00:01:27;6.50;;;1.70;;
77544;SDS011;66672;50.328;7.610;2023-04-26T00:03:53;7.60;;;2.27;;
77544;SDS011;66672;50.328;7.610;2023-04-26T00:06:20;9.17;;;1.87;;
77544;SDS011;66672;50.328;7.610;2023-04-26T00:08:45;5.30;;;1.90;;
77544;SDS011;66672;50.328;7.610;2023-04-26T00:11:10;7.33;;;3.07;;
77544;SDS011;66672;50.328;7.610;2023-04-26T00:13:35;7.17;;;2.00;;
77544;SDS011;66672;50.328;7.610;2023-04-26T00:16:02;5.20;;;2.10;;
77544;SDS011;66672;50.328;7.610;2023-04-26T00:18:27;8.20;;;2.23;;
77544;SDS011;66672;50.328;7.610;2023-04-26T00:20:53;7.13;;;2.10;;
77544;SDS011;66672;50.328;7.610;2023-04-26T00:23:18;5.00;;;2.00;;
77544;SDS011;66672;50.328;7.610;2023-04-26T00:25:43;5.90;;;1.97;;
77544;SDS011;66672;50.328;7.610;2023-04-26T00:28:08;7.37;;;2.13;;
77544;SDS011;66672;50.328;7.610;2023-04-26T00:30:34;4.50;;;2.00;;
77544;SDS011;66672;50.328;7.610;2023-04-26T00:33:01;7.83;;;1.90;;
77544;SDS011;66672;50.328;7.610;2023-04-26T00:35:26;8.60;;;2.37;;
77544;SDS011;66672;50.328;7.610;2023-04-26T00:37:51;4.87;;;1.93;;
77544;SDS011;66672;50.328;7.610;2023-04-26T00:40:16;6.40;;;2.10;;
77544;SDS011;66672;50.328;7.610;2023-04-26T00:42:44;5.40;;;1.90;;
77544;SDS011;66672;50.328;7.610;2023-04-26T00:45:09;7.70;;;2.10;;
77544;SDS011;66672;50.328;7.610;2023-04-26T00:47:35;8.60;;;2.20;;
77544;SDS011;66672;50.328;7.610;2023-04-26T00:50:00;6.90;;;2.27;;
77544;SDS011;66672;50.328;7.610;2023-04-26T00:52:26;5.53;;;2.60;;
77544;SDS011;66672;50.328;7.610;2023-04-26T00:54:52;5.40;;;2.37;;
77544;SDS011;66672;50.328;7.610;2023-04-26T00:57:17;5.73;;;2.90;;
77544;SDS011;66672;50.328;7.610;2023-04-26T00:59:42;7.07;;;2.10;;
77544;SDS011;66672;50.328;7.610;2023-04-26T01:02:07;6.00;;;2.23;;
77544;SDS011;66672;50.328;7.610;2023-04-26T01:04:33;6.90;;;2.47;;
77544;SDS011;66672;50.328;7.610;2023-04-26T01:06:59;7.67;;;2.40;;
77544;SDS011;66672;50.328;7.610;2023-04-26T01:09:25;6.70;;;2.20;;
77544;SDS011;66672;50.328;7.610;2023-04-26T01:11:50;5.17;;;2.07;;
77544;SDS011;66672;50.328;7.610;2023-04-26T01:14:16;4.77;;;2.50;;
77544;SDS011;66672;50.328;7.610;2023-04-26T01:16:41;15.07;;;2.90;;
77544;SDS011;66672;50.328;7.610;2023-04-26T01:19:10;5.83;;;2.33;;
77544;SDS011;66672;50.328;7.610;2023-04-26T01:21:36;4.93;;;1.90;;
77544;SDS011;66672;50.328;7.610;2023-04-26T01:24:02;6.57;;;2.30;;
77544;SDS011;66672;50.328;7.610;2023-04-26T01:26:27;6.20;;;2.40;;
77544;SDS011;66672;50.328;7.610;2023-04-26T01:28:53;5.67;;;2.17;;
77544;SDS011;66672;50.328;7.610;2023-04-26T01:31:18;6.27;;;2.70;;
77544;SDS011;66672;50.328;7.610;2023-04-26T01:33:43;5.80;;;2.07;;
77544;SDS011;66672;50.328;7.610;2023-04-26T01:36:08;7.47;;;2.10;;
77544;SDS011;66672;50.328;7.610;2023-04-26T01:38:37;6.43;;;2.30;;
77544;SDS011;66672;50.328;7.610;2023-04-26T01:41:02;9.47;;;2.53;;
77544;SDS011;66672;50.328;7.610;2023-04-26T01:43:27;5.93;;;2.73;;
77544;SDS011;66672;50.328;7.610;2023-04-26T01:45:53;8.13;;;2.40;;
77544;SDS011;66672;50.328;7.610;2023-04-26T01:48:18;6.37;;;2.70;;
77544;SDS011;66672;50.328;7.610;2023-04-26T01:50:43;7.03;;;2.43;;
77544;SDS011;66672;50.328;7.610;2023-04-26T01:53:08;7.83;;;2.70;;
77544;SDS011;66672;50.328;7.610;2023-04-26T01:55:33;5.83;;;2.70;;
77544;SDS011;66672;50.328;7.610;2023-04-26T01:57:58;9.00;;;2.90;;
77544;SDS011;66672;50.328;7.610;2023-04-26T02:00:25;5.80;;;2.40;;
77544;SDS011;66672;50.328;7.610;2023-04-26T02:02:53;6.57;;;2.40;;
77544;SDS011;66672;50.328;7.610;2023-04-26T02:05:18;7.77;;;2.67;;
77544;SDS011;66672;50.328;7.610;2023-04-26T02:07:43;8.80;;;2.80;;
77544;SDS011;66672;50.328;7.610;2023-04-26T02:10:08;8.70;;;2.43;;
77544;SDS011;66672;50.328;7.610;2023-04-26T02:12:34;6.57;;;2.50;;
77544;SDS011;66672;50.328;7.610;2023-04-26T02:14:59;7.00;;;2.70;;
77544;SDS011;66672;50.328;7.610;2023-04-26T02:17:24;6.73;;;3.10;;
77544;SDS011;66672;50.328;7.610;2023-04-26T02:19:50;7.27;;;2.60;;
77544;SDS011;66672;50.328;7.610;2023-04-26T02:22:15;8.70;;;2.30;;
77544;SDS011;66672;50.328;7.610;2023-04-26T02:24:41;8.37;;;2.87;;
77544;SDS011;66672;50.328;7.610;2023-04-26T02:27:06;8.43;;;2.70;;
77544;SDS011;66672;50.328;7.610;2023-04-26T02:29:31;7.10;;;2.67;;
77544;SDS011;66672;50.328;7.610;2023-04-26T02:31:57;8.03;;;2.93;;
77544;SDS011;66672;50.328;7.610;2023-04-26T02:34:22;6.23;;;2.97;;
77544;SDS011;66672;50.328;7.610;2023-04-26T02:36:47;7.67;;;2.77;;
77544;SDS011;66672;50.328;7.610;2023-04-26T02:39:12;6.53;;;2.30;;
77544;SDS011;66672;50.328;7.610;2023-04-26T02:41:38;7.07;;;2.87;;
77544;SDS011;66672;50.328;7.610;2023-04-26T02:44:03;6.33;;;2.23;;
77544;SDS011;66672;50.328;7.610;2023-04-26T02:46:28;10.20;;;3.63;;
77544;SDS011;66672;50.328;7.610;2023-04-26T02:48:53;9.00;;;2.83;;
77544;SDS011;66672;50.328;7.610;2023-04-26T02:51:18;7.77;;;3.00;;
77544;SDS011;66672;50.328;7.610;2023-04-26T02:53:44;9.53;;;3.00;;
77544;SDS011;66672;50.328;7.610;2023-04-26T02:56:09;8.57;;;2.90;;
77544;SDS011;66672;50.328;7.610;2023-04-26T02:58:35;11.47;;;2.97;;
77544;SDS011;66672;50.328;7.610;2023-04-26T03:01:00;10.23;;;3.33;;
77544;SDS011;66672;50.328;7.610;2023-04-26T03:03:25;7.03;;;2.67;;
77544;SDS011;66672;50.328;7.610;2023-04-26T03:05:51;8.10;;;2.77;;
77544;SDS011;66672;50.328;7.610;2023-04-26T03:08:16;8.70;;;2.73;;
77544;SDS011;66672;50.328;7.610;2023-04-26T03:10:42;6.80;;;2.73;;
77544;SDS011;66672;50.328;7.610;2023-04-26T03:13:08;7.87;;;2.50;;
77544;SDS011;66672;50.328;7.610;2023-04-26T03:15:33;11.47;;;3.53;;
77544;SDS011;66672;50.328;7.610;2023-04-26T03:17:58;6.27;;;2.60;;
77544;SDS011;66672;50.328;7.610;2023-04-26T03:20:24;10.90;;;3.37;;
77544;SDS011;66672;50.328;7.610;2023-04-26T03:22:49;6.90;;;3.10;;
77544;SDS011;66672;50.328;7.610;2023-04-26T03:25:14;9.50;;;3.13;;
77544;SDS011;66672;50.328;7.610;2023-04-26T03:27:43;10.20;;;3.23;;
77544;SDS011;66672;50.328;7.610;2023-04-26T03:30:08;11.33;;;3.30;;
77544;SDS011;66672;50.328;7.610;2023-04-26T03:32:34;8.90;;;2.80;;
77544;SDS011;66672;50.328;7.610;2023-04-26T03:34:59;6.90;;;3.23;;
77544;SDS011;66672;50.328;7.610;2023-04-26T03:37:24;8.67;;;2.80;;
77544;SDS011;66672;50.328;7.610;2023-04-26T03:39:50;7.53;;;3.03;;
77544;SDS011;66672;50.328;7.610;2023-04-26T03:42:17;6.07;;;2.90;;
77544;SDS011;66672;50.328;7.610;2023-04-26T03:44:42;13.33;;;3.20;;
77544;SDS011;66672;50.328;7.610;2023-04-26T03:47:07;8.47;;;3.03;;
77544;SDS011;66672;50.328;7.610;2023-04-26T03:49:32;10.90;;;3.43;;
77544;SDS011;66672;50.328;7.610;2023-04-26T03:51:58;7.57;;;3.00;;
77544;SDS011;66672;50.328;7.610;2023-04-26T03:54:23;7.03;;;3.27;;
77544;SDS011;66672;50.328;7.610;2023-04-26T03:56:48;10.07;;;3.90;;
77544;SDS011;66672;50.328;7.610;2023-04-26T03:59:13;8.33;;;3.20;;
77544;SDS011;66672;50.328;7.610;2023-04-26T04:01:38;12.50;;;4.13;;
77544;SDS011;66672;50.328;7.610;2023-04-26T04:04:04;9.87;;;3.80;;
77544;SDS011;66672;50.328;7.610;2023-04-26T04:06:29;8.77;;;5.10;;
77544;SDS011;66672;50.328;7.610;2023-04-26T04:08:54;9.63;;;4.10;;
77544;SDS011;66672;50.328;7.610;2023-04-26T04:11:20;10.03;;;3.50;;
77544;SDS011;66672;50.328;7.610;2023-04-26T04:13:45;8.60;;;3.43;;
77544;SDS011;66672;50.328;7.610;2023-04-26T04:16:10;7.63;;;3.30;;
77544;SDS011;66672;50.328;7.610;2023-04-26T04:18:36;11.07;;;3.67;;
77544;SDS011;66672;50.328;7.610;2023-04-26T04:21:01;11.83;;;4.33;;
77544;SDS011;66672;50.328;7.610;2023-04-26T04:23:27;8.57;;;3.47;;
77544;SDS011;66672;50.328;7.610;2023-04-26T04:25:52;9.13;;;3.37;;
77544;SDS011;66672;50.328;7.610;2023-04-26T04:28:17;7.37;;;4.03;;
77544;SDS011;66672;50.328;7.610;2023-04-26T04:30:42;9.70;;;5.13;;
77544;SDS011;66672;50.328;7.610;2023-04-26T04:33:08;10.53;;;3.80;;
77544;SDS011;66672;50.328;7.610;2023-04-26T04:35:33;8.27;;;3.47;;
77544;SDS011;66672;50.328;7.610;2023-04-26T04:37:59;10.27;;;3.80;;
77544;SDS011;66672;50.328;7.610;2023-04-26T04:40:24;14.30;;;4.87;;
77544;SDS011;66672;50.328;7.610;2023-04-26T04:42:50;10.63;;;3.73;;
77544;SDS011;66672;50.328;7.610;2023-04-26T04:45:15;9.00;;;4.10;;
77544;SDS011;66672;50.328;7.610;2023-04-26T04:47:41;10.27;;;3.57;;
77544;SDS011;66672;50.328;7.610;2023-04-26T04:50:07;9.47;;;4.77;;
77544;SDS011;66672;50.328;7.610;2023-04-26T04:52:32;15.30;;;7.20;;
77544;SDS011;66672;50.328;7.610;2023-04-26T04:54:57;9.87;;;4.20;;
77544;SDS011;66672;50.328;7.610;2023-04-26T04:57:23;10.27;;;3.97;;
77544;SDS011;66672;50.328;7.610;2023-04-26T04:59:48;8.77;;;3.67;;
77544;SDS011;66672;50.328;7.610;2023-04-26T05:02:13;7.67;;;3.63;;
77544;SDS011;66672;50.328;7.610;2023-04-26T05:04:38;12.03;;;4.40;;
77544;SDS011;66672;50.328;7.610;2023-04-26T05:07:03;10.57;;;3.67;;
77544;SDS011;66672;50.328;7.610;2023-04-26T05:09:30;7.90;;;4.10;;
77544;SDS011;66672;50.328;7.610;2023-04-26T05:11:55;11.13;;;4.50;;
77544;SDS011;66672;50.328;7.610;2023-04-26T05:14:22;12.07;;;4.60;;
77544;SDS011;66672;50.328;7.610;2023-04-26T05:16:47;9.53;;;4.47;;
77544;SDS011;66672;50.328;7.610;2023-04-26T05:19:12;10.27;;;4.57;;
77544;SDS011;66672;50.328;7.610;2023-04-26T05:21:37;11.63;;;4.70;;
77544;SDS011;66672;50.328;7.610;2023-04-26T05:24:03;11.37;;;3.83;;
77544;SDS011;66672;50.328;7.610;2023-04-26T05:26:28;7.97;;;4.57;;
77544;SDS011;66672;50.328;7.610;2023-04-26T05:28:53;12.87;;;5.00;;
77544;SDS011;66672;50.328;7.610;2023-04-26T05:31:18;9.90;;;4.50;;
77544;SDS011;66672;50.328;7.610;2023-04-26T05:33:44;12.70;;;5.23;;
77544;SDS011;66672;50.328;7.610;2023-04-26T05:36:09;13.93;;;4.90;;
77544;SDS011;66672;50.328;7.610;2023-04-26T05:38:34;12.90;;;5.10;;
77544;SDS011;66672;50.328;7.610;2023-04-26T05:41:01;9.87;;;4.33;;
77544;SDS011;66672;50.328;7.610;2023-04-26T05:43:26;11.23;;;4.90;;
77544;SDS011;66672;50.328;7.610;2023-04-26T05:45:52;10.83;;;4.33;;
77544;SDS011;66672;50.328;7.610;2023-04-26T05:48:17;10.23;;;4.83;;
77544;SDS011;66672;50.328;7.610;2023-04-26T05:50:43;14.20;;;5.93;;
77544;SDS011;66672;50.328;7.610;2023-04-26T05:53:08;15.93;;;5.90;;
77544;SDS011;66672;50.328;7.610;2023-04-26T05:55:33;11.80;;;5.20;;
77544;SDS011;66672;50.328;7.610;2023-04-26T05:57:58;14.40;;;5.40;;
77544;SDS011;66672;50.328;7.610;2023-04-26T06:00:24;11.53;;;4.77;;
77544;SDS011;66672;50.328;7.610;2023-04-26T06:02:49;14.80;;;5.40;;
77544;SDS011;66672;50.328;7.610;2023-04-26T06:05:14;9.73;;;5.13;;
77544;SDS011;66672;50.328;7.610;2023-04-26T06:07:39;10.53;;;5.30;;
77544;SDS011;66672;50.328;7.610;2023-04-26T06:10:05;10.93;;;5.00;;
77544;SDS011;66672;50.328;7.610;2023-04-26T06:12:30;11.10;;;5.30;;
77544;SDS011;66672;50.328;7.610;2023-04-26T06:14:55;12.77;;;5.70;;
77544;SDS011;66672;50.328;7.610;2023-04-26T06:17:20;9.40;;;5.27;;
77544;SDS011;66672;50.328;7.610;2023-04-26T06:19:46;10.90;;;5.03;;
77544;SDS011;66672;50.328;7.610;2023-04-26T06:22:11;10.40;;;5.30;;
77544;SDS011;66672;50.328;7.610;2023-04-26T06:24:36;8.50;;;4.20;;
77544;SDS011;66672;50.328;7.610;2023-04-26T06:27:01;11.07;;;5.53;;
77544;SDS011;66672;50.328;7.610;2023-04-26T06:29:27;11.07;;;5.07;;
77544;SDS011;66672;50.328;7.610;2023-04-26T06:31:52;13.47;;;5.20;;
77544;SDS011;66672;50.328;7.610;2023-04-26T06:34:17;13.10;;;5.07;;
77544;SDS011;66672;50.328;7.610;2023-04-26T06:36:42;12.90;;;5.40;;
77544;SDS011;66672;50.328;7.610;2023-04-26T06:39:07;10.23;;;5.03;;
77544;SDS011;66672;50.328;7.610;2023-04-26T06:41:33;14.43;;;5.47;;
77544;SDS011;66672;50.328;7.610;2023-04-26T06:43:58;12.73;;;6.03;;
77544;SDS011;66672;50.328;7.610;2023-04-26T06:46:23;12.40;;;4.67;;
77544;SDS011;66672;50.328;7.610;2023-04-26T06:48:48;12.47;;;5.33;;
77544;SDS011;66672;50.328;7.610;2023-04-26T06:51:13;13.47;;;5.23;;
77544;SDS011;66672;50.328;7.610;2023-04-26T06:53:39;8.73;;;4.30;;
77544;SDS011;66672;50.328;7.610;2023-04-26T06:56:05;23.57;;;5.00;;
77544;SDS011;66672;50.328;7.610;2023-04-26T06:58:30;10.07;;;4.47;;
77544;SDS011;66672;50.328;7.610;2023-04-26T07:00:55;12.03;;;5.43;;
77544;SDS011;66672;50.328;7.610;2023-04-26T07:03:21;12.77;;;4.87;;
77544;SDS011;66672;50.328;7.610;2023-04-26T07:05:46;14.10;;;5.07;;
77544;SDS011;66672;50.328;7.610;2023-04-26T07:08:12;12.17;;;4.77;;
77544;SDS011;66672;50.328;7.610;2023-04-26T07:10:40;11.37;;;5.37;;
77544;SDS011;66672;50.328;7.610;2023-04-26T07:13:05;10.87;;;5.40;;
77544;SDS011;66672;50.328;7.610;2023-04-26T07:15:30;11.60;;;5.57;;
77544;SDS011;66672;50.328;7.610;2023-04-26T07:17:57;13.57;;;5.40;;
77544;SDS011;66672;50.328;7.610;2023-04-26T07:20:22;11.80;;;4.97;;
77544;SDS011;66672;50.328;7.610;2023-04-26T07:22:48;13.47;;;4.57;;
77544;SDS011;66672;50.328;7.610;2023-04-26T07:25:13;12.53;;;5.30;;
77544;SDS011;66672;50.328;7.610;2023-04-26T07:27:38;14.67;;;4.80;;
77544;SDS011;66672;50.328;7.610;2023-04-26T07:30:04;10.43;;;4.93;;
77544;SDS011;66672;50.328;7.610;2023-04-26T07:32:29;13.03;;;5.33;;
77544;SDS011;66672;50.328;7.610;2023-04-26T07:34:55;12.67;;;5.30;;
77544;SDS011;66672;50.328;7.610;2023-04-26T07:37:20;13.03;;;5.67;;
77544;SDS011;66672;50.328;7.610;2023-04-26T07:39:45;11.87;;;5.67;;
77544;SDS011;66672;50.328;7.610;2023-04-26T07:42:10;13.03;;;5.50;;
77544;SDS011;66672;50.328;7.610;2023-04-26T07:44:36;15.70;;;5.30;;
77544;SDS011;66672;50.328;7.610;2023-04-26T07:47:01;11.67;;;5.53;;
77544;SDS011;66672;50.328;7.610;2023-04-26T07:49:26;9.87;;;4.40;;
77544;SDS011;66672;50.328;7.610;2023-04-26T07:51:51;13.60;;;4.33;;
77544;SDS011;66672;50.328;7.610;2023-04-26T07:54:17;12.17;;;4.90;;
77544;SDS011;66672;50.328;7.610;2023-04-26T07:56:42;10.27;;;4.83;;
77544;SDS011;66672;50.328;7.610;2023-04-26T07:59:07;8.83;;;4.50;;
77544;SDS011;66672;50.328;7.610;2023-04-26T08:01:32;9.43;;;4.97;;
77544;SDS011;66672;50.328;7.610;2023-04-26T08:03:57;11.90;;;5.00;;
77544;SDS011;66672;50.328;7.610;2023-04-26T08:06:23;11.93;;;4.50;;
77544;SDS011;66672;50.328;7.610;2023-04-26T08:08:48;14.93;;;4.80;;
77544;SDS011;66672;50.328;7.610;2023-04-26T08:11:14;22.80;;;6.80;;
77544;SDS011;66672;50.328;7.610;2023-04-26T08:13:40;15.10;;;5.47;;
77544;SDS011;66672;50.328;7.610;2023-04-26T08:16:05;13.93;;;5.17;;
77544;SDS011;66672;50.328;7.610;2023-04-26T08:18:30;12.63;;;4.63;;
77544;SDS011;66672;50.328;7.610;2023-04-26T08:20:55;9.70;;;4.20;;
77544;SDS011;66672;50.328;7.610;2023-04-26T08:23:21;10.73;;;3.73;;
77544;SDS011;66672;50.328;7.610;2023-04-26T08:25:46;12.03;;;3.97;;
77544;SDS011;66672;50.328;7.610;2023-04-26T08:28:13;8.23;;;3.97;;
77544;SDS011;66672;50.328;7.610;2023-04-26T08:30:39;13.10;;;4.90;;
77544;SDS011;66672;50.328;7.610;2023-04-26T08:33:04;9.13;;;4.60;;
77544;SDS011;66672;50.328;7.610;2023-04-26T08:35:29;13.13;;;5.27;;
77544;SDS011;66672;50.328;7.610;2023-04-26T08:37:54;11.40;;;4.53;;
77544;SDS011;66672;50.328;7.610;2023-04-26T08:40:21;9.67;;;4.53;;
77544;SDS011;66672;50.328;7.610;2023-04-26T08:42:46;11.53;;;5.00;;
77544;SDS011;66672;50.328;7.610;2023-04-26T08:45:12;11.00;;;4.63;;
77544;SDS011;66672;50.328;7.610;2023-04-26T08:47:43;10.47;;;4.03;;
77544;SDS011;66672;50.328;7.610;2023-04-26T08:50:12;11.50;;;3.50;;
77544;SDS011;66672;50.328;7.610;2023-04-26T08:52:38;10.03;;;3.90;;
77544;SDS011;66672;50.328;7.610;2023-04-26T08:55:05;14.67;;;4.50;;
77544;SDS011;66672;50.328;7.610;2023-04-26T08:57:31;11.40;;;4.30;;
77544;SDS011;66672;50.328;7.610;2023-04-26T08:59:57;9.83;;;4.20;;
77544;SDS011;66672;50.328;7.610;2023-04-26T09:02:22;9.67;;;3.93;;
77544;SDS011;66672;50.328;7.610;2023-04-26T09:04:48;9.83;;;4.20;;
77544;SDS011;66672;50.328;7.610;2023-04-26T09:07:36;11.37;;;4.97;;
77544;SDS011;66672;50.328;7.610;2023-04-26T09:09:59;11.87;;;4.83;;
77544;SDS011;66672;50.328;7.610;2023-04-26T09:12:25;11.10;;;4.77;;
77544;SDS011;66672;50.328;7.610;2023-04-26T09:14:50;9.20;;;4.30;;
77544;SDS011;66672;50.328;7.610;2023-04-26T09:17:36;11.63;;;4.23;;
77544;SDS011;66672;50.328;7.610;2023-04-26T09:20:16;10.10;;;3.70;;
77544;SDS011;66672;50.328;7.610;2023-04-26T09:22:42;13.30;;;4.63;;
77544;SDS011;66672;50.328;7.610;2023-04-26T09:25:07;8.83;;;4.30;;
77544;SDS011;66672;50.328;7.610;2023-04-26T09:27:36;11.17;;;3.77;;
77544;SDS011;66672;50.328;7.610;2023-04-26T09:30:06;9.23;;;3.60;;
77544;SDS011;66672;50.328;7.610;2023-04-26T09:32:53;10.55;;;3.83;;
77544;SDS011;66672;50.328;7.610;2023-04-26T09:35:31;7.93;;;3.53;;
77544;SDS011;66672;50.328;7.610;2023-04-26T09:40:26;9.27;;;4.20;;
77544;SDS011;66672;50.328;7.610;2023-04-26T09:45:26;9.53;;;3.57;;
77544;SDS011;66672;50.328;7.610;2023-04-26T09:47:52;9.10;;;3.40;;
77544;SDS011;66672;50.328;7.610;2023-04-26T09:50:29;6.15;;;3.17;;
77544;SDS011;66672;50.328;7.610;2023-04-26T09:52:55;8.53;;;3.70;;
77544;SDS011;66672;50.328;7.610;2023-04-26T09:55:27;8.80;;;2.90;;
77544;SDS011;66672;50.328;7.610;2023-04-26T09:57:53;7.77;;;2.93;;
77544;SDS011;66672;50.328;7.610;2023-04-26T10:00:18;6.93;;;3.13;;
77544;SDS011;66672;50.328;7.610;2023-04-26T10:02:45;8.70;;;3.33;;
77544;SDS011;66672;50.328;7.610;2023-04-26T10:05:10;6.40;;;3.28;;
77544;SDS011;66672;50.328;7.610;2023-04-26T10:07:35;9.82;;;3.28;;
77544;SDS011;66672;50.328;7.610;2023-04-26T10:10:01;13.15;;;3.47;;
77544;SDS011;66672;50.328;7.610;2023-04-26T10:12:27;8.63;;;3.03;;
77544;SDS011;66672;50.328;7.610;2023-04-26T10:14:53;9.07;;;3.53;;
77544;SDS011;66672;50.328;7.610;2023-04-26T10:17:19;7.07;;;3.27;;
77544;SDS011;66672;50.328;7.610;2023-04-26T10:19:45;7.30;;;2.92;;
77544;SDS011;66672;50.328;7.610;2023-04-26T10:22:14;7.32;;;2.97;;
77544;SDS011;66672;50.328;7.610;2023-04-26T10:24:41;6.40;;;2.70;;
77544;SDS011;66672;50.328;7.610;2023-04-26T10:27:07;8.40;;;3.47;;
77544;SDS011;66672;50.328;7.610;2023-04-26T10:32:16;8.07;;;2.85;;
77544;SDS011;66672;50.328;7.610;2023-04-26T10:34:42;5.90;;;3.38;;
77544;SDS011;66672;50.328;7.610;2023-04-26T10:37:14;7.00;;;3.00;;
77544;SDS011;66672;50.328;7.610;2023-04-26T10:39:40;6.40;;;3.45;;
77544;SDS011;66672;50.328;7.610;2023-04-26T10:47:33;11.15;;;3.63;;
77544;SDS011;66672;50.328;7.610;2023-04-26T10:50:11;5.90;;;3.30;;
77544;SDS011;66672;50.328;7.610;2023-04-26T10:58:31;9.38;;;3.08;;
77544;SDS011;66672;50.328;7.610;2023-04-26T11:01:03;6.13;;;2.65;;
77544;SDS011;66672;50.328;7.610;2023-04-26T11:03:29;9.52;;;3.08;;
77544;SDS011;66672;50.328;7.610;2023-04-26T11:05:54;6.93;;;3.45;;
77544;SDS011;66672;50.328;7.610;2023-04-26T11:10:49;5.85;;;2.85;;
77544;SDS011;66672;50.328;7.610;2023-04-26T11:13:15;6.95;;;3.10;;
77544;SDS011;66672;50.328;7.610;2023-04-26T11:15:41;6.25;;;3.30;;
77544;SDS011;66672;50.328;7.610;2023-04-26T11:18:07;6.35;;;3.05;;
77544;SDS011;66672;50.328;7.610;2023-04-26T11:20:32;8.57;;;2.65;;
77544;SDS011;66672;50.328;7.610;2023-04-26T11:22:58;8.82;;;3.03;;
77544;SDS011;66672;50.328;7.610;2023-04-26T11:25:24;6.72;;;3.25;;
77544;SDS011;66672;50.328;7.610;2023-04-26T11:27:50;7.25;;;2.70;;
77544;SDS011;66672;50.328;7.610;2023-04-26T11:30:17;6.93;;;3.50;;
77544;SDS011;66672;50.328;7.610;2023-04-26T11:32:44;6.97;;;2.97;;
77544;SDS011;66672;50.328;7.610;2023-04-26T11:35:09;6.70;;;3.00;;
77544;SDS011;66672;50.328;7.610;2023-04-26T11:37:35;10.07;;;3.35;;
77544;SDS011;66672;50.328;7.610;2023-04-26T11:40:01;7.40;;;3.95;;
77544;SDS011;66672;50.328;7.610;2023-04-26T11:42:26;6.32;;;3.08;;
77544;SDS011;66672;50.328;7.610;2023-04-26T11:44:51;10.88;;;3.15;;
77544;SDS011;66672;50.328;7.610;2023-04-26T11:47:17;8.52;;;3.60;;
77544;SDS011;66672;50.328;7.610;2023-04-26T11:49:42;8.40;;;3.15;;
77544;SDS011;66672;50.328;7.610;2023-04-26T11:52:08;8.70;;;3.53;;
77544;SDS011;66672;50.328;7.610;2023-04-26T11:54:34;6.55;;;3.53;;
77544;SDS011;66672;50.328;7.610;2023-04-26T11:57:11;8.93;;;3.40;;
77544;SDS011;66672;50.328;7.610;2023-04-26T11:59:37;11.02;;;3.90;;
77544;SDS011;66672;50.328;7.610;2023-04-26T12:02:04;10.23;;;3.83;;
77544;SDS011;66672;50.328;7.610;2023-04-26T12:04:31;9.60;;;3.40;;
77544;SDS011;66672;50.328;7.610;2023-04-26T12:06:56;7.78;;;3.30;;
77544;SDS011;66672;50.328;7.610;2023-04-26T12:09:28;7.88;;;3.40;;
77544;SDS011;66672;50.328;7.610;2023-04-26T12:12:00;8.85;;;3.47;;
77544;SDS011;66672;50.328;7.610;2023-04-26T12:14:29;8.07;;;3.72;;
77544;SDS011;66672;50.328;7.610;2023-04-26T12:16:55;11.65;;;3.72;;
77544;SDS011;66672;50.328;7.610;2023-04-26T12:19:22;9.32;;;3.75;;
77544;SDS011;66672;50.328;7.610;2023-04-26T12:21:47;8.57;;;3.30;;
77544;SDS011;66672;50.328;7.610;2023-04-26T12:26:45;8.10;;;3.22;;
77544;SDS011;66672;50.328;7.610;2023-04-26T12:29:10;9.32;;;3.83;;
77544;SDS011;66672;50.328;7.610;2023-04-26T12:31:35;9.43;;;3.55;;
77544;SDS011;66672;50.328;7.610;2023-04-26T12:34:01;8.65;;;3.63;;
77544;SDS011;66672;50.328;7.610;2023-04-26T12:36:26;7.18;;;4.32;;
77544;SDS011;66672;50.328;7.610;2023-04-26T12:38:52;5.35;;;2.85;;
77544;SDS011;66672;50.328;7.610;2023-04-26T12:41:17;9.05;;;3.83;;
77544;SDS011;66672;50.328;7.610;2023-04-26T12:43:42;7.80;;;3.75;;
77544;SDS011;66672;50.328;7.610;2023-04-26T12:46:07;6.85;;;3.40;;
77544;SDS011;66672;50.328;7.610;2023-04-26T12:48:32;6.93;;;3.30;;
77544;SDS011;66672;50.328;7.610;2023-04-26T12:50:58;11.77;;;4.25;;
77544;SDS011;66672;50.328;7.610;2023-04-26T12:53:23;8.90;;;4.32;;
77544;SDS011;66672;50.328;7.610;2023-04-26T12:55:48;7.32;;;3.60;;
77544;SDS011;66672;50.328;7.610;2023-04-26T12:58:13;11.90;;;4.25;;
77544;SDS011;66672;50.328;7.610;2023-04-26T13:00:39;9.57;;;3.97;;
77544;SDS011;66672;50.328;7.610;2023-04-26T13:03:04;6.75;;;3.70;;
77544;SDS011;66672;50.328;7.610;2023-04-26T13:05:29;10.82;;;4.20;;
77544;SDS011;66672;50.328;7.610;2023-04-26T13:07:56;8.77;;;4.15;;
77544;SDS011;66672;50.328;7.610;2023-04-26T13:10:21;9.63;;;4.30;;
77544;SDS011;66672;50.328;7.610;2023-04-26T13:12:46;9.55;;;4.28;;
77544;SDS011;66672;50.328;7.610;2023-04-26T13:15:11;16.42;;;4.43;;
77544;SDS011;66672;50.328;7.610;2023-04-26T13:17:37;8.77;;;3.42;;
77544;SDS011;66672;50.328;7.610;2023-04-26T13:20:02;13.18;;;3.92;;
77544;SDS011;66672;50.328;7.610;2023-04-26T13:22:28;7.40;;;3.65;;
77544;SDS011;66672;50.328;7.610;2023-04-26T13:24:53;7.35;;;3.60;;
77544;SDS011;66672;50.328;7.610;2023-04-26T13:27:18;13.70;;;4.85;;
77544;SDS011;66672;50.328;7.610;2023-04-26T13:29:44;8.80;;;4.32;;
77544;SDS011;66672;50.328;7.610;2023-04-26T13:32:09;8.90;;;4.05;;
77544;SDS011;66672;50.328;7.610;2023-04-26T13:34:34;10.65;;;3.92;;
77544;SDS011;66672;50.328;7.610;2023-04-26T13:36:59;9.00;;;4.47;;
77544;SDS011;66672;50.328;7.610;2023-04-26T13:39:25;9.50;;;3.97;;
77544;SDS011;66672;50.328;7.610;2023-04-26T13:41:52;9.55;;;4.03;;
77544;SDS011;66672;50.328;7.610;2023-04-26T13:44:17;9.52;;;4.18;;
77544;SDS011;66672;50.328;7.610;2023-04-26T13:46:43;10.07;;;4.07;;
77544;SDS011;66672;50.328;7.610;2023-04-26T13:49:09;9.43;;;3.90;;
77544;SDS011;66672;50.328;7.610;2023-04-26T13:51:34;7.95;;;3.97;;
77544;SDS011;66672;50.328;7.610;2023-04-26T13:54:00;8.38;;;3.90;;
77544;SDS011;66672;50.328;7.610;2023-04-26T13:56:25;6.35;;;4.00;;
77544;SDS011;66672;50.328;7.610;2023-04-26T13:58:53;9.88;;;4.00;;
77544;SDS011;66672;50.328;7.610;2023-04-26T14:01:18;8.00;;;3.80;;
77544;SDS011;66672;50.328;7.610;2023-04-26T14:03:44;6.97;;;3.53;;
77544;SDS011;66672;50.328;7.610;2023-04-26T14:06:10;6.78;;;3.55;;
77544;SDS011;66672;50.328;7.610;2023-04-26T14:08:35;6.30;;;3.83;;
77544;SDS011;66672;50.328;7.610;2023-04-26T14:11:00;8.45;;;3.47;;
77544;SDS011;66672;50.328;7.610;2023-04-26T14:13:25;11.18;;;4.50;;
77544;SDS011;66672;50.328;7.610;2023-04-26T14:15:50;8.85;;;3.95;;
77544;SDS011;66672;50.328;7.610;2023-04-26T14:18:16;8.73;;;4.68;;
77544;SDS011;66672;50.328;7.610;2023-04-26T14:20:41;8.73;;;3.70;;
77544;SDS011;66672;50.328;7.610;2023-04-26T14:23:06;9.93;;;4.20;;
77544;SDS011;66672;50.328;7.610;2023-04-26T14:25:31;8.10;;;3.83;;
77544;SDS011;66672;50.328;7.610;2023-04-26T14:27:56;8.75;;;4.90;;
77544;SDS011;66672;50.328;7.610;2023-04-26T14:30:22;9.25;;;4.05;;
77544;SDS011;66672;50.328;7.610;2023-04-26T14:32:48;8.50;;;4.13;;
77544;SDS011;66672;50.328;7.610;2023-04-26T14:35:13;7.35;;;4.20;;
77544;SDS011;66672;50.328;7.610;2023-04-26T14:37:38;9.18;;;3.60;;
77544;SDS011;66672;50.328;7.610;2023-04-26T14:40:04;7.15;;;4.22;;
77544;SDS011;66672;50.328;7.610;2023-04-26T14:42:31;8.70;;;3.03;;
77544;SDS011;66672;50.328;7.610;2023-04-26T14:44:57;9.35;;;3.67;;
77544;SDS011;66672;50.328;7.610;2023-04-26T14:47:22;8.52;;;4.13;;
77544;SDS011;66672;50.328;7.610;2023-04-26T14:49:47;6.18;;;3.83;;
77544;SDS011;66672;50.328;7.610;2023-04-26T14:52:12;6.95;;;3.67;;
77544;SDS011;66672;50.328;7.610;2023-04-26T14:54:38;6.97;;;3.55;;
77544;SDS011;66672;50.328;7.610;2023-04-26T14:57:03;7.43;;;3.55;;
77544;SDS011;66672;50.328;7.610;2023-04-26T14:59:28;7.78;;;3.70;;